Portada
METAR-TAF:

METAR-TAF

Aeroports :

Danbury Municipal Airport

Danbury, Connecticut, Estats Units d'Amèrica

latitud: 41-22-18N, longitud: 073-29-04W, altitud: 139 m

Observació

L'informe es va fer fa 23 minuts, a les 11:53 UTC
Vent 4 kt amb direcció variable
Temperatura 22°C
Humitat 73%
Pressió 1017 hPa
Visibilitat: 16.1 km
Cel clar

METAR: KDXR 261153Z VRB04KT 10SM CLR 22/17 A3004 RMK AO2 SLP169 70018 T02220167 10222 20167 51013

Hora: 08:16 (12:16 UTC)


TAF: manca

Observacions i pronòstics meteorològics de més de 4000 aeroports (METAR i TAF).

Les estacions disponibles són els punts grocs i vermells al mapa.

Posi el ratolí al punt desitjat per veure el nom de l'estació.

Feu clic per veure les observacions i els pronòstics meteorològics.

Per canviar el mapa: feu clic els botons verds amb una creu de color negre per apropar; al botó verd amb un guió per allunyar la imatge; o en les fletxes verdes per a mapes adjacents.


METAR-TAF: